Jackson Township, Pennsylvania
Current Conditions -  °F | °C
As of 1:54 AM on Thursday 18 Dec 2014 (Local Time) from KAVP Reporting Station
Overcast Overcast  
Wind Chill: 26°   Ceiling: 3400
Heat Index: 33°   Visibility: 9mi
Dew Point: 26°   Wind: 8mph
Humidity: 75%   Direction: 250°WSW
Pressure: 29.94"   Gusts: NA
Location:  41.2938°N, 75.9861°W
Report Text: KAVP 180654Z 25007KT 9SM FEW028 BKN034 OVC042 01/M03 A2994 RMK AO2 SNE53 SLP142 P0002 T00061033
Loading
Personal Weather Stations






























Interactive Weather Map New forecast layout! Learn more

10-Day Weather Forecast

Advertisements
Track Severe Weather on mobile